sensor_id;sensor_type;location;lat;lon;timestamp;pressure;altitude;pressure_sealevel;temperature;humidity
6449;BME280;3257;52.298;13.690;2022-07-19T00:00:10;76654.22;;;-144.77;56.13
6449;BME280;3257;52.298;13.690;2022-07-19T00:02:38;76656.22;;;-144.77;56.04
6449;BME280;3257;52.298;13.690;2022-07-19T00:05:06;76662.16;;;-144.77;56.65
6449;BME280;3257;52.298;13.690;2022-07-19T00:07:34;76658.19;;;-144.77;56.66
6449;BME280;3257;52.298;13.690;2022-07-19T00:10:01;76668.13;;;-144.77;57.07
6449;BME280;3257;52.298;13.690;2022-07-19T00:12:28;76674.09;;;-144.77;56.79
6449;BME280;3257;52.298;13.690;2022-07-19T00:14:54;76680.06;;;-144.77;57.11
6449;BME280;3257;52.298;13.690;2022-07-19T00:17:21;76690.00;;;-144.77;57.54
6449;BME280;3257;52.298;13.690;2022-07-19T00:19:48;76682.03;;;-144.77;57.65
6449;BME280;3257;52.298;13.690;2022-07-19T00:22:15;76699.94;;;-144.77;57.96
6449;BME280;3257;52.298;13.690;2022-07-19T00:24:41;76711.84;;;-144.77;58.15
6449;BME280;3257;52.298;13.690;2022-07-19T00:27:08;76713.84;;;-144.77;58.42
6449;BME280;3257;52.298;13.690;2022-07-19T00:29:34;76723.78;;;-144.77;58.53
6449;BME280;3257;52.298;13.690;2022-07-19T00:32:01;76721.78;;;-144.77;58.64
6449;BME280;3257;52.298;13.690;2022-07-19T00:34:28;76717.81;;;-144.77;58.75
6449;BME280;3257;52.298;13.690;2022-07-19T00:36:54;76717.81;;;-144.77;58.99
6449;BME280;3257;52.298;13.690;2022-07-19T00:39:21;76727.75;;;-144.77;58.89
6449;BME280;3257;52.298;13.690;2022-07-19T00:41:48;76731.72;;;-144.77;59.18
6449;BME280;3257;52.298;13.690;2022-07-19T00:44:14;76729.75;;;-144.77;59.34
6449;BME280;3257;52.298;13.690;2022-07-19T00:46:41;76733.72;;;-144.77;59.71
6449;BME280;3257;52.298;13.690;2022-07-19T00:49:08;76735.69;;;-144.77;59.77
6449;BME280;3257;52.298;13.690;2022-07-19T00:51:38;76737.69;;;-144.77;59.80
6449;BME280;3257;52.298;13.690;2022-07-19T00:54:09;76747.63;;;-144.77;59.63
6449;BME280;3257;52.298;13.690;2022-07-19T00:56:37;76751.59;;;-144.77;59.84
6449;BME280;3257;52.298;13.690;2022-07-19T00:59:04;76753.59;;;-144.77;60.29
6449;BME280;3257;52.298;13.690;2022-07-19T01:01:31;76761.53;;;-144.77;60.67
6449;BME280;3257;52.298;13.690;2022-07-19T01:03:59;76759.53;;;-144.77;60.70
6449;BME280;3257;52.298;13.690;2022-07-19T01:06:26;76773.47;;;-144.77;60.59
6449;BME280;3257;52.298;13.690;2022-07-19T01:08:53;76779.41;;;-144.77;60.71
6449;BME280;3257;52.298;13.690;2022-07-19T01:11:19;76781.41;;;-144.77;60.79
6449;BME280;3257;52.298;13.690;2022-07-19T01:13:46;76781.41;;;-144.77;60.82
6449;BME280;3257;52.298;13.690;2022-07-19T01:16:15;76797.31;;;-144.77;60.89
6449;BME280;3257;52.298;13.690;2022-07-19T01:18:42;76787.38;;;-144.77;60.71
6449;BME280;3257;52.298;13.690;2022-07-19T01:21:18;76781.41;;;-144.77;61.16
6449;BME280;3257;52.298;13.690;2022-07-19T01:23:45;76789.34;;;-144.77;61.59
6449;BME280;3257;52.298;13.690;2022-07-19T01:26:11;76781.41;;;-144.77;61.79
6449;BME280;3257;52.298;13.690;2022-07-19T01:28:38;76789.34;;;-144.77;62.03
6449;BME280;3257;52.298;13.690;2022-07-19T01:31:05;76807.25;;;-144.77;62.46
6449;BME280;3257;52.298;13.690;2022-07-19T01:33:32;76809.22;;;-144.77;62.49
6449;BME280;3257;52.298;13.690;2022-07-19T01:35:58;76817.19;;;-144.77;62.87
6449;BME280;3257;52.298;13.690;2022-07-19T01:38:25;76815.19;;;-144.77;63.09
6449;BME280;3257;52.298;13.690;2022-07-19T01:40:51;76821.16;;;-144.77;63.31
6449;BME280;3257;52.298;13.690;2022-07-19T01:43:18;76829.09;;;-144.77;63.70
6449;BME280;3257;52.298;13.690;2022-07-19T01:45:45;76831.09;;;-144.77;63.74
6449;BME280;3257;52.298;13.690;2022-07-19T01:48:11;76833.06;;;-144.77;63.97
6449;BME280;3257;52.298;13.690;2022-07-19T01:50:38;76841.03;;;-144.77;64.46
6449;BME280;3257;52.298;13.690;2022-07-19T01:53:04;76835.06;;;-144.77;64.21
6449;BME280;3257;52.298;13.690;2022-07-19T01:55:31;76839.03;;;-144.77;64.54
6449;BME280;3257;52.298;13.690;2022-07-19T01:57:57;76837.06;;;-144.77;64.94
6449;BME280;3257;52.298;13.690;2022-07-19T02:00:24;76843.00;;;-144.77;64.81
6449;BME280;3257;52.298;13.690;2022-07-19T02:02:51;76848.97;;;-144.77;65.07
6449;BME280;3257;52.298;13.690;2022-07-19T02:05:17;76852.94;;;-144.77;65.27
6449;BME280;3257;52.298;13.690;2022-07-19T02:07:45;76852.94;;;-144.77;65.69
6449;BME280;3257;52.298;13.690;2022-07-19T02:10:12;76858.91;;;-144.77;66.53
6449;BME280;3257;52.298;13.690;2022-07-19T02:12:39;76854.94;;;-144.77;67.25
6449;BME280;3257;52.298;13.690;2022-07-19T02:15:06;76854.94;;;-144.77;67.32
6449;BME280;3257;52.298;13.690;2022-07-19T02:17:34;76862.88;;;-144.77;67.71
6449;BME280;3257;52.298;13.690;2022-07-19T02:20:01;76862.88;;;-144.77;68.49
6449;BME280;3257;52.298;13.690;2022-07-19T02:22:27;76866.84;;;-144.77;68.74
6449;BME280;3257;52.298;13.690;2022-07-19T02:24:54;76866.84;;;-144.77;69.52
6449;BME280;3257;52.298;13.690;2022-07-19T02:27:21;76876.78;;;-144.77;69.90
6449;BME280;3257;52.298;13.690;2022-07-19T02:29:47;76874.81;;;-144.77;69.83
6449;BME280;3257;52.298;13.690;2022-07-19T02:32:15;76878.78;;;-144.77;70.41
6449;BME280;3257;52.298;13.690;2022-07-19T02:34:42;76882.75;;;-144.77;70.67
6449;BME280;3257;52.298;13.690;2022-07-19T02:37:08;76876.78;;;-144.77;70.75
6449;BME280;3257;52.298;13.690;2022-07-19T02:39:35;76882.75;;;-144.77;71.09
6449;BME280;3257;52.298;13.690;2022-07-19T02:42:02;76884.75;;;-144.77;71.52
6449;BME280;3257;52.298;13.690;2022-07-19T02:44:28;76890.72;;;-144.77;72.16
6449;BME280;3257;52.298;13.690;2022-07-19T02:46:55;76892.69;;;-144.77;72.01
6449;BME280;3257;52.298;13.690;2022-07-19T02:49:21;76896.66;;;-144.77;71.97
6449;BME280;3257;52.298;13.690;2022-07-19T02:51:48;76902.63;;;-144.77;72.11
6449;BME280;3257;52.298;13.690;2022-07-19T02:54:15;76908.59;;;-144.77;71.87
6449;BME280;3257;52.298;13.690;2022-07-19T02:56:42;76918.53;;;-144.77;71.82
6449;BME280;3257;52.298;13.690;2022-07-19T02:59:08;76918.53;;;-144.77;71.47
6449;BME280;3257;52.298;13.690;2022-07-19T03:01:35;76918.53;;;-144.77;71.89
6449;BME280;3257;52.298;13.690;2022-07-19T03:04:02;76920.53;;;-144.77;71.95
6449;BME280;3257;52.298;13.690;2022-07-19T03:06:29;76926.47;;;-144.77;72.05
6449;BME280;3257;52.298;13.690;2022-07-19T03:08:56;76926.47;;;-144.77;72.11
6449;BME280;3257;52.298;13.690;2022-07-19T03:11:23;76930.47;;;-144.77;73.17
6449;BME280;3257;52.298;13.690;2022-07-19T03:13:49;76934.44;;;-144.77;73.44
6449;BME280;3257;52.298;13.690;2022-07-19T03:16:16;76936.41;;;-144.77;73.72
6449;BME280;3257;52.298;13.690;2022-07-19T03:18:43;76936.41;;;-144.77;74.01
6449;BME280;3257;52.298;13.690;2022-07-19T03:21:10;76932.44;;;-144.77;73.97
6449;BME280;3257;52.298;13.690;2022-07-19T03:23:36;76932.44;;;-144.77;74.31
6449;BME280;3257;52.298;13.690;2022-07-19T03:26:04;76926.47;;;-144.77;74.39
6449;BME280;3257;52.298;13.690;2022-07-19T03:28:33;76922.50;;;-144.77;74.63
6449;BME280;3257;52.298;13.690;2022-07-19T03:31:00;76926.47;;;-144.77;74.74
6449;BME280;3257;52.298;13.690;2022-07-19T03:33:26;76928.47;;;-144.77;74.99
6449;BME280;3257;52.298;13.690;2022-07-19T03:35:53;76924.50;;;-144.77;75.03
6449;BME280;3257;52.298;13.690;2022-07-19T03:38:20;76926.47;;;-144.77;75.29
6449;BME280;3257;52.298;13.690;2022-07-19T03:40:47;76926.47;;;-144.77;75.44
6449;BME280;3257;52.298;13.690;2022-07-19T03:43:15;76926.47;;;-144.77;75.31
6449;BME280;3257;52.298;13.690;2022-07-19T03:45:43;76932.44;;;-144.77;75.17
6449;BME280;3257;52.298;13.690;2022-07-19T03:48:11;76928.47;;;-144.77;75.12
6449;BME280;3257;52.298;13.690;2022-07-19T03:50:37;76926.47;;;-144.77;75.19
6449;BME280;3257;52.298;13.690;2022-07-19T03:53:05;76924.50;;;-144.77;75.14
6449;BME280;3257;52.298;13.690;2022-07-19T03:55:31;76928.47;;;-144.77;75.01
6449;BME280;3257;52.298;13.690;2022-07-19T03:57:58;76926.47;;;-144.77;74.91
6449;BME280;3257;52.298;13.690;2022-07-19T04:00:25;76926.47;;;-144.77;74.65
6449;BME280;3257;52.298;13.690;2022-07-19T04:02:52;76930.47;;;-144.77;74.27
6449;BME280;3257;52.298;13.690;2022-07-19T04:05:18;76928.47;;;-144.77;74.43
6449;BME280;3257;52.298;13.690;2022-07-19T04:07:45;76928.47;;;-144.77;74.17
6449;BME280;3257;52.298;13.690;2022-07-19T04:10:12;76922.50;;;-144.77;73.89
6449;BME280;3257;52.298;13.690;2022-07-19T04:12:38;76932.44;;;-144.77;73.67
6449;BME280;3257;52.298;13.690;2022-07-19T04:15:06;76918.53;;;-144.77;73.44
6449;BME280;3257;52.298;13.690;2022-07-19T04:17:33;76918.53;;;-144.77;73.29
6449;BME280;3257;52.298;13.690;2022-07-19T04:19:59;76912.56;;;-144.77;73.12
6449;BME280;3257;52.298;13.690;2022-07-19T04:22:26;76920.53;;;-144.77;72.94
6449;BME280;3257;52.298;13.690;2022-07-19T04:24:53;76916.53;;;-144.77;72.81
6449;BME280;3257;52.298;13.690;2022-07-19T04:27:19;76910.59;;;-144.77;72.33
6449;BME280;3257;52.298;13.690;2022-07-19T04:29:46;76904.63;;;-144.77;72.52
6449;BME280;3257;52.298;13.690;2022-07-19T04:32:14;76898.66;;;-144.77;72.52
6449;BME280;3257;52.298;13.690;2022-07-19T04:34:47;76894.69;;;-144.77;72.71
6449;BME280;3257;52.298;13.690;2022-07-19T04:37:13;76874.81;;;-144.77;72.24
6449;BME280;3257;52.298;13.690;2022-07-19T04:39:40;76868.84;;;-144.77;72.04
6449;BME280;3257;52.298;13.690;2022-07-19T04:42:07;76868.84;;;-144.77;72.05
6449;BME280;3257;52.298;13.690;2022-07-19T04:44:34;76868.84;;;-144.77;71.88
6449;BME280;3257;52.298;13.690;2022-07-19T04:47:00;76862.88;;;-144.77;71.65
6449;BME280;3257;52.298;13.690;2022-07-19T04:49:27;76852.94;;;-144.77;71.45
6449;BME280;3257;52.298;13.690;2022-07-19T04:51:54;76848.97;;;-144.77;71.54
6449;BME280;3257;52.298;13.690;2022-07-19T04:54:30;76837.06;;;-144.77;71.13
6449;BME280;3257;52.298;13.690;2022-07-19T04:56:56;76827.13;;;-144.77;70.62
6449;BME280;3257;52.298;13.690;2022-07-19T04:59:23;76819.16;;;-144.77;70.33
6449;BME280;3257;52.298;13.690;2022-07-19T05:01:49;76815.19;;;-144.77;70.07
6449;BME280;3257;52.298;13.690;2022-07-19T05:04:19;76789.34;;;-144.77;69.24
6449;BME280;3257;52.298;13.690;2022-07-19T05:06:46;76775.44;;;-144.77;68.99
6449;BME280;3257;52.298;13.690;2022-07-19T05:09:12;76757.56;;;-144.77;68.49
6449;BME280;3257;52.298;13.690;2022-07-19T05:11:43;76751.59;;;-144.77;68.17
6449;BME280;3257;52.298;13.690;2022-07-19T05:14:10;76739.66;;;-144.77;67.52
6449;BME280;3257;52.298;13.690;2022-07-19T05:16:37;76727.75;;;-144.77;66.79
6449;BME280;3257;52.298;13.690;2022-07-19T05:19:04;76709.88;;;-144.77;66.34
6449;BME280;3257;52.298;13.690;2022-07-19T05:21:30;76699.94;;;-144.77;66.17
6449;BME280;3257;52.298;13.690;2022-07-19T05:23:57;76693.97;;;-144.77;66.04
6449;BME280;3257;52.298;13.690;2022-07-19T05:26:24;76682.03;;;-144.77;65.71
6449;BME280;3257;52.298;13.690;2022-07-19T05:28:50;76672.09;;;-144.77;65.27
6449;BME280;3257;52.298;13.690;2022-07-19T05:31:17;76654.22;;;-144.77;63.33
6449;BME280;3257;52.298;13.690;2022-07-19T05:33:44;76642.28;;;-144.77;62.62
6449;BME280;3257;52.298;13.690;2022-07-19T05:36:10;76628.38;;;-144.77;62.37
6449;BME280;3257;52.298;13.690;2022-07-19T05:38:38;76610.50;;;-144.77;62.27
6449;BME280;3257;52.298;13.690;2022-07-19T05:41:09;76598.56;;;-144.77;61.34
6449;BME280;3257;52.298;13.690;2022-07-19T05:43:38;76580.69;;;-144.77;60.49
6449;BME280;3257;52.298;13.690;2022-07-19T05:46:07;76562.81;;;-144.77;60.34
6449;BME280;3257;52.298;13.690;2022-07-19T05:48:34;76546.91;;;-144.77;60.20
6449;BME280;3257;52.298;13.690;2022-07-19T05:51:04;76527.03;;;-144.77;58.79
6449;BME280;3257;52.298;13.690;2022-07-19T05:53:31;76515.13;;;-144.77;57.98
6449;BME280;3257;52.298;13.690;2022-07-19T05:55:58;76491.28;;;-144.77;57.84
6449;BME280;3257;52.298;13.690;2022-07-19T05:58:24;76479.34;;;-144.77;56.94
6449;BME280;3257;52.298;13.690;2022-07-19T06:00:57;76459.47;;;-144.77;56.69
6449;BME280;3257;52.298;13.690;2022-07-19T06:03:43;76441.59;;;-144.77;55.40
6449;BME280;3257;52.298;13.690;2022-07-19T06:06:09;76421.72;;;-144.77;53.33
6449;BME280;3257;52.298;13.690;2022-07-19T06:08:36;76411.78;;;-144.77;52.42
6449;BME280;3257;52.298;13.690;2022-07-19T06:11:03;76391.91;;;-144.77;52.04
6449;BME280;3257;52.298;13.690;2022-07-19T06:13:34;76380.00;;;-144.77;51.82
6449;BME280;3257;52.298;13.690;2022-07-19T06:16:01;76346.22;;;-144.77;52.38
6449;BME280;3257;52.298;13.690;2022-07-19T06:18:28;76342.25;;;-144.77;51.28
6449;BME280;3257;52.298;13.690;2022-07-19T06:21:06;76328.34;;;-144.77;49.99
6449;BME280;3257;52.298;13.690;2022-07-19T06:23:32;76308.47;;;-144.77;49.36
6449;BME280;3257;52.298;13.690;2022-07-19T06:25:59;76282.63;;;-144.77;48.23
6449;BME280;3257;52.298;13.690;2022-07-19T06:28:26;76260.78;;;-144.77;48.21
6449;BME280;3257;52.298;13.690;2022-07-19T06:30:53;76228.97;;;-144.77;45.88
6449;BME280;3257;52.298;13.690;2022-07-19T06:33:20;76207.13;;;-144.77;46.46
6449;BME280;3257;52.298;13.690;2022-07-19T06:35:46;76185.25;;;-144.77;45.21
6449;BME280;3257;52.298;13.690;2022-07-19T06:38:13;76171.34;;;-144.77;43.37
6449;BME280;3257;52.298;13.690;2022-07-19T06:40:40;76149.50;;;-144.77;43.40
6449;BME280;3257;52.298;13.690;2022-07-19T06:43:07;76139.56;;;-144.77;43.39
6449;BME280;3257;52.298;13.690;2022-07-19T06:45:34;76125.66;;;-144.77;43.10
6449;BME280;3257;52.298;13.690;2022-07-19T06:48:01;76113.75;;;-144.77;42.95
6449;BME280;3257;52.298;13.690;2022-07-19T06:50:28;76107.78;;;-144.77;42.83
6449;BME280;3257;52.298;13.690;2022-07-19T06:53:06;76087.91;;;-144.77;41.95
6449;BME280;3257;52.298;13.690;2022-07-19T06:55:33;76072.00;;;-144.77;41.70
6449;BME280;3257;52.298;13.690;2022-07-19T06:58:00;76056.13;;;-144.77;42.76
6449;BME280;3257;52.298;13.690;2022-07-19T07:00:27;76058.09;;;-144.77;41.14
6449;BME280;3257;52.298;13.690;2022-07-19T07:02:53;76050.16;;;-144.77;42.29
6449;BME280;3257;52.298;13.690;2022-07-19T07:05:20;76026.31;;;-144.77;42.39
6449;BME280;3257;52.298;13.690;2022-07-19T07:07:47;76006.44;;;-144.77;41.84
6449;BME280;3257;52.298;13.690;2022-07-19T07:10:15;75990.56;;;-144.77;40.67
6449;BME280;3257;52.298;13.690;2022-07-19T07:12:42;75990.56;;;-144.77;42.97
6449;BME280;3257;52.298;13.690;2022-07-19T07:15:37;75968.69;;;-144.77;41.69
6449;BME280;3257;52.298;13.690;2022-07-19T07:18:38;75960.75;;;-144.77;42.90
6449;BME280;3257;52.298;13.690;2022-07-19T07:21:14;75946.84;;;-144.77;41.65
6449;BME280;3257;52.298;13.690;2022-07-19T07:31:07;75899.16;;;-144.77;41.75
6449;BME280;3257;52.298;13.690;2022-07-19T07:51:47;75750.16;;;-144.77;39.24
6449;BME280;3257;52.298;13.690;2022-07-19T07:54:14;75740.22;;;-144.77;38.74
6449;BME280;3257;52.298;13.690;2022-07-19T07:56:42;75722.34;;;-144.77;39.72
6449;BME280;3257;52.298;13.690;2022-07-19T07:59:09;75706.44;;;-144.77;38.82
6449;BME280;3257;52.298;13.690;2022-07-19T08:01:35;75696.50;;;-144.77;38.57
6449;BME280;3257;52.298;13.690;2022-07-19T08:04:05;75678.63;;;-144.77;39.23
6449;BME280;3257;52.298;13.690;2022-07-19T08:06:31;75676.66;;;-144.77;39.05
6449;BME280;3257;52.298;13.690;2022-07-19T08:08:58;75658.75;;;-144.77;39.14
6449;BME280;3257;52.298;13.690;2022-07-19T08:11:25;75652.81;;;-144.77;38.23
6449;BME280;3257;52.298;13.690;2022-07-19T08:13:59;75630.94;;;-144.77;37.78
6449;BME280;3257;52.298;13.690;2022-07-19T08:16:34;75623.00;;;-144.77;38.49
6449;BME280;3257;52.298;13.690;2022-07-19T08:19:01;75625.00;;;-144.77;38.34
6449;BME280;3257;52.298;13.690;2022-07-19T08:21:28;75609.09;;;-144.77;37.52
6449;BME280;3257;52.298;13.690;2022-07-19T08:23:59;75589.22;;;-144.77;36.74
6449;BME280;3257;52.298;13.690;2022-07-19T08:26:29;75581.28;;;-144.77;37.06
6449;BME280;3257;52.298;13.690;2022-07-19T08:29:04;75589.22;;;-144.77;36.96
6449;BME280;3257;52.298;13.690;2022-07-19T08:31:30;75577.31;;;-144.77;36.69
6449;BME280;3257;52.298;13.690;2022-07-19T08:33:57;75581.28;;;-144.77;35.41
6449;BME280;3257;52.298;13.690;2022-07-19T08:36:24;75561.41;;;-144.77;35.40
6449;BME280;3257;52.298;13.690;2022-07-19T08:38:50;75537.59;;;-144.77;35.23
6449;BME280;3257;52.298;13.690;2022-07-19T08:41:17;75521.69;;;-144.77;35.46
6449;BME280;3257;52.298;13.690;2022-07-19T08:43:49;75489.91;;;-144.77;34.95
6449;BME280;3257;52.298;13.690;2022-07-19T08:46:19;75474.00;;;-144.77;34.76
6449;BME280;3257;52.298;13.690;2022-07-19T08:48:48;75487.91;;;-144.77;34.00
6449;BME280;3257;52.298;13.690;2022-07-19T08:51:20;75481.97;;;-144.77;34.36
6449;BME280;3257;52.298;13.690;2022-07-19T08:53:49;75474.00;;;-144.77;33.61
6449;BME280;3257;52.298;13.690;2022-07-19T08:56:18;75456.13;;;-144.77;33.49
6449;BME280;3257;52.298;13.690;2022-07-19T08:59:03;75436.28;;;-144.77;33.28
6449;BME280;3257;52.298;13.690;2022-07-19T09:01:30;75406.47;;;-144.77;34.02
6449;BME280;3257;52.298;13.690;2022-07-19T09:04:16;75392.56;;;-144.77;33.26
6449;BME280;3257;52.298;13.690;2022-07-19T09:06:51;75360.78;;;-144.77;32.69
6449;BME280;3257;52.298;13.690;2022-07-19T09:09:30;75352.84;;;-144.77;32.56
6449;BME280;3257;52.298;13.690;2022-07-19T09:11:58;75348.88;;;-144.77;32.89
6449;BME280;3257;52.298;13.690;2022-07-19T09:14:35;75321.06;;;-144.77;33.00
6449;BME280;3257;52.298;13.690;2022-07-19T09:17:04;75295.22;;;-144.77;32.41
6449;BME280;3257;52.298;13.690;2022-07-19T09:19:37;75289.28;;;-144.77;31.23
6449;BME280;3257;52.298;13.690;2022-07-19T09:22:06;75269.41;;;-144.77;31.66
6449;BME280;3257;52.298;13.690;2022-07-19T09:24:36;75231.66;;;-144.77;30.71
6449;BME280;3257;52.298;13.690;2022-07-19T09:29:37;75203.84;;;-144.77;31.79
6449;BME280;3257;52.298;13.690;2022-07-19T09:32:18;75195.91;;;-144.77;30.56
6449;BME280;3257;52.298;13.690;2022-07-19T09:34:54;75209.81;;;-144.77;31.00
6449;BME280;3257;52.298;13.690;2022-07-19T09:37:26;75191.94;;;-144.77;30.76
6449;BME280;3257;52.298;13.690;2022-07-19T09:40:00;75170.09;;;-144.77;30.23
6449;BME280;3257;52.298;13.690;2022-07-19T09:42:42;75160.16;;;-144.77;30.31
6449;BME280;3257;52.298;13.690;2022-07-19T09:45:18;75156.19;;;-144.77;29.74
6449;BME280;3257;52.298;13.690;2022-07-19T09:47:46;75148.22;;;-144.77;29.71
6449;BME280;3257;52.298;13.690;2022-07-19T09:50:19;75128.38;;;-144.77;29.77
6449;BME280;3257;52.298;13.690;2022-07-19T09:52:50;75100.56;;;-144.77;28.74
6449;BME280;3257;52.298;13.690;2022-07-19T09:55:20;75084.66;;;-144.77;28.70
6449;BME280;3257;52.298;13.690;2022-07-19T09:57:50;75074.75;;;-144.77;28.96
6449;BME280;3257;52.298;13.690;2022-07-19T10:00:20;75060.84;;;-144.77;28.44
6449;BME280;3257;52.298;13.690;2022-07-19T10:02:55;75035.00;;;-144.77;28.31
6449;BME280;3257;52.298;13.690;2022-07-19T10:05:24;75017.13;;;-144.77;27.31
6449;BME280;3257;52.298;13.690;2022-07-19T10:07:52;74997.28;;;-144.77;26.56
6449;BME280;3257;52.298;13.690;2022-07-19T10:10:23;74989.34;;;-144.77;26.05
6449;BME280;3257;52.298;13.690;2022-07-19T10:12:57;74991.31;;;-144.77;25.68
6449;BME280;3257;52.298;13.690;2022-07-19T10:15:25;74997.28;;;-144.77;26.32
6449;BME280;3257;52.298;13.690;2022-07-19T10:18:07;74955.56;;;-144.77;26.59
6449;BME280;3257;52.298;13.690;2022-07-19T10:20:36;74939.66;;;-144.77;26.24
6449;BME280;3257;52.298;13.690;2022-07-19T10:23:03;74939.66;;;-144.77;25.68
6449;BME280;3257;52.298;13.690;2022-07-19T10:25:47;74933.72;;;-144.77;25.54
6449;BME280;3257;52.298;13.690;2022-07-19T10:31:28;74892.00;;;-144.77;27.08
6449;BME280;3257;52.298;13.690;2022-07-19T10:34:00;74886.03;;;-144.77;25.90
6449;BME280;3257;52.298;13.690;2022-07-19T10:36:44;74860.22;;;-144.77;26.63
6449;BME280;3257;52.298;13.690;2022-07-19T10:42:18;74858.25;;;-144.77;26.63
6449;BME280;3257;52.298;13.690;2022-07-19T10:50:00;74854.25;;;-144.77;26.91
6449;BME280;3257;52.298;13.690;2022-07-19T10:57:46;74812.56;;;-144.77;26.11
6449;BME280;3257;52.298;13.690;2022-07-19T11:02:50;74796.66;;;-144.77;25.60
6449;BME280;3257;52.298;13.690;2022-07-19T11:05:23;74772.84;;;-144.77;25.59
6449;BME280;3257;52.298;13.690;2022-07-19T11:07:51;74745.03;;;-144.77;26.54
6449;BME280;3257;52.298;13.690;2022-07-19T11:10:24;74756.94;;;-144.77;26.51
6449;BME280;3257;52.298;13.690;2022-07-19T11:12:53;74766.88;;;-144.77;26.14
6449;BME280;3257;52.298;13.690;2022-07-19T11:15:20;74751.00;;;-144.77;25.95
6449;BME280;3257;52.298;13.690;2022-07-19T11:18:05;74741.06;;;-144.77;25.64
6449;BME280;3257;52.298;13.690;2022-07-19T11:20:34;74745.03;;;-144.77;26.46
6449;BME280;3257;52.298;13.690;2022-07-19T11:23:03;74747.00;;;-144.77;26.22
6449;BME280;3257;52.298;13.690;2022-07-19T11:25:35;74743.03;;;-144.77;26.31
6449;BME280;3257;52.298;13.690;2022-07-19T11:28:20;74752.97;;;-144.77;26.42
6449;BME280;3257;52.298;13.690;2022-07-19T11:30:47;74745.03;;;-144.77;25.79
6449;BME280;3257;52.298;13.690;2022-07-19T11:33:17;74733.13;;;-144.77;25.44
6449;BME280;3257;52.298;13.690;2022-07-19T11:35:57;74741.06;;;-144.77;25.89
6449;BME280;3257;52.298;13.690;2022-07-19T11:38:55;74713.25;;;-144.77;25.50
6449;BME280;3257;52.298;13.690;2022-07-19T11:46:20;74709.28;;;-144.77;25.20
6449;BME280;3257;52.298;13.690;2022-07-19T11:48:48;74735.09;;;-144.77;25.06
6449;BME280;3257;52.298;13.690;2022-07-19T11:51:14;74739.06;;;-144.77;25.49
6449;BME280;3257;52.298;13.690;2022-07-19T11:53:41;74719.22;;;-144.77;25.00
6449;BME280;3257;52.298;13.690;2022-07-19T11:56:20;74697.38;;;-144.77;24.91
6449;BME280;3257;52.298;13.690;2022-07-19T11:58:47;74719.22;;;-144.77;25.12
6449;BME280;3257;52.298;13.690;2022-07-19T12:01:14;74707.28;;;-144.77;24.03
6449;BME280;3257;52.298;13.690;2022-07-19T12:03:57;74677.50;;;-144.77;24.47
6449;BME280;3257;52.298;13.690;2022-07-19T12:09:09;74635.78;;;-144.77;23.62
6449;BME280;3257;52.298;13.690;2022-07-19T12:14:27;74625.88;;;-144.77;24.46
6449;BME280;3257;52.298;13.690;2022-07-19T12:17:13;74594.09;;;-144.77;23.38
6449;BME280;3257;52.298;13.690;2022-07-19T12:19:43;74594.09;;;-144.77;24.20
6449;BME280;3257;52.298;13.690;2022-07-19T12:25:00;74594.09;;;-144.77;23.79
6449;BME280;3257;52.298;13.690;2022-07-19T12:27:28;74572.25;;;-144.77;23.91
6449;BME280;3257;52.298;13.690;2022-07-19T12:29:57;74550.41;;;-144.77;24.24
6449;BME280;3257;52.298;13.690;2022-07-19T12:32:37;74538.47;;;-144.77;23.21
6449;BME280;3257;52.298;13.690;2022-07-19T12:35:12;74528.56;;;-144.77;24.18
6449;BME280;3257;52.298;13.690;2022-07-19T12:37:48;74542.44;;;-144.77;23.94
6449;BME280;3257;52.298;13.690;2022-07-19T12:40:43;74552.38;;;-144.77;23.15
6449;BME280;3257;52.298;13.690;2022-07-19T12:43:10;74556.34;;;-144.77;23.36
6449;BME280;3257;52.298;13.690;2022-07-19T12:45:44;74530.53;;;-144.77;23.34
6449;BME280;3257;52.298;13.690;2022-07-19T12:48:14;74552.38;;;-144.77;23.72
6449;BME280;3257;52.298;13.690;2022-07-19T12:50:47;74556.34;;;-144.77;24.09
6449;BME280;3257;52.298;13.690;2022-07-19T12:53:16;74562.31;;;-144.77;23.64
6449;BME280;3257;52.298;13.690;2022-07-19T12:55:44;74534.50;;;-144.77;23.86
6449;BME280;3257;52.298;13.690;2022-07-19T12:58:13;74512.66;;;-144.77;24.27
6449;BME280;3257;52.298;13.690;2022-07-19T13:00:40;74532.53;;;-144.77;23.92
6449;BME280;3257;52.298;13.690;2022-07-19T13:03:08;74550.41;;;-144.77;23.64
6449;BME280;3257;52.298;13.690;2022-07-19T13:05:35;74536.50;;;-144.77;24.16
6449;BME280;3257;52.298;13.690;2022-07-19T13:08:02;74516.63;;;-144.77;22.99
6449;BME280;3257;52.298;13.690;2022-07-19T13:10:29;74524.56;;;-144.77;24.06
6449;BME280;3257;52.298;13.690;2022-07-19T13:12:56;74498.75;;;-144.77;24.49
6449;BME280;3257;52.298;13.690;2022-07-19T13:15:23;74482.88;;;-144.77;24.07
6449;BME280;3257;52.298;13.690;2022-07-19T13:17:50;74468.97;;;-144.77;23.81
6449;BME280;3257;52.298;13.690;2022-07-19T13:20:25;74488.81;;;-144.77;23.71
6449;BME280;3257;52.298;13.690;2022-07-19T13:22:52;74496.78;;;-144.77;23.56
6449;BME280;3257;52.298;13.690;2022-07-19T13:25:28;74500.75;;;-144.77;24.00
6449;BME280;3257;52.298;13.690;2022-07-19T13:28:12;74478.91;;;-144.77;23.83
6449;BME280;3257;52.298;13.690;2022-07-19T13:30:39;74480.88;;;-144.77;23.80
6449;BME280;3257;52.298;13.690;2022-07-19T13:33:06;74463.00;;;-144.77;23.91
6449;BME280;3257;52.298;13.690;2022-07-19T13:35:36;74482.88;;;-144.77;23.70
6449;BME280;3257;52.298;13.690;2022-07-19T13:38:07;74506.69;;;-144.77;23.79
6449;BME280;3257;52.298;13.690;2022-07-19T13:40:38;74504.72;;;-144.77;24.21
6449;BME280;3257;52.298;13.690;2022-07-19T13:43:06;74478.91;;;-144.77;24.16
6449;BME280;3257;52.298;13.690;2022-07-19T13:45:36;74492.81;;;-144.77;23.83
6449;BME280;3257;52.298;13.690;2022-07-19T13:48:02;74468.97;;;-144.77;24.14
6449;BME280;3257;52.298;13.690;2022-07-19T13:50:29;74490.81;;;-144.77;24.01
6449;BME280;3257;52.298;13.690;2022-07-19T13:52:57;74441.16;;;-144.77;23.99
6449;BME280;3257;52.298;13.690;2022-07-19T13:55:25;74409.38;;;-144.77;23.31
6449;BME280;3257;52.298;13.690;2022-07-19T13:57:51;74393.50;;;-144.77;23.14
6449;BME280;3257;52.298;13.690;2022-07-19T14:00:18;74373.66;;;-144.77;23.53